createdAt,value
2019-03-10T00:00:10.447Z,96781.98
2019-03-10T00:01:46.133Z,96782.16
2019-03-10T00:03:24.729Z,96780.36
2019-03-10T00:05:00.465Z,96783.02
2019-03-10T00:06:36.514Z,96788.45
2019-03-10T00:08:14.946Z,96787.91
2019-03-10T00:09:50.535Z,96787.09
2019-03-10T00:11:26.557Z,96797.89
2019-03-10T00:13:05.301Z,96805.45
2019-03-10T00:14:40.942Z,96807.75
2019-03-10T00:16:16.816Z,96814.53
2019-03-10T00:17:53.635Z,96815.48
2019-03-10T00:19:30.766Z,96816.94
2019-03-10T00:21:06.904Z,96814.40
2019-03-10T00:22:43.714Z,96805.27
2019-03-10T00:24:19.680Z,96806.56
2019-03-10T00:25:55.382Z,96791.73
2019-03-10T00:27:34.482Z,96792.27
2019-03-10T00:29:10.375Z,96802.72
2019-03-10T00:30:48.296Z,96791.45
2019-03-10T00:32:23.999Z,96789.15
2019-03-10T00:33:59.539Z,96790.33
2019-03-10T00:35:38.042Z,96782.01
2019-03-10T00:37:13.416Z,96774.22
2019-03-10T00:39:12.347Z,96777.76
2019-03-10T00:41:30.707Z,96782.01
2019-03-10T00:44:08.393Z,96779.47
2019-03-10T00:46:39.630Z,96774.81
2019-03-10T00:49:07.905Z,96775.58
2019-03-10T00:51:28.710Z,96780.00
2019-03-10T00:53:08.055Z,96784.84
2019-03-10T00:54:44.005Z,96776.17
2019-03-10T00:56:19.951Z,96784.31
2019-03-10T00:57:55.455Z,96773.86
2019-03-10T00:59:31.267Z,96773.86
2019-03-10T01:01:06.779Z,96775.98
2019-03-10T01:02:42.211Z,96774.64
2019-03-10T01:04:20.613Z,96769.39
2019-03-10T01:06:03.322Z,96764.95
2019-03-10T01:07:39.834Z,96771.73
2019-03-10T01:09:16.992Z,96762.66
2019-03-10T01:10:52.672Z,96757.81
2019-03-10T01:12:30.408Z,96766.84
2019-03-10T01:14:08.786Z,96758.00
2019-03-10T01:15:45.689Z,96758.00
2019-03-10T01:17:21.211Z,96761.71
2019-03-10T01:18:56.755Z,96755.10
2019-03-10T01:20:47.416Z,96756.28
2019-03-10T01:22:30.257Z,96749.32
2019-03-10T01:24:05.833Z,96747.73
2019-03-10T01:25:43.804Z,96744.52
2019-03-10T01:27:19.744Z,96741.03
2019-03-10T01:28:56.139Z,96738.14
2019-03-10T01:30:37.932Z,96737.97
2019-03-10T01:32:48.682Z,96733.13
2019-03-10T01:34:57.466Z,96737.78
2019-03-10T01:36:31.203Z,96729.05
2019-03-10T01:38:06.701Z,96723.45
2019-03-10T01:39:42.437Z,96727.94
2019-03-10T01:41:18.313Z,96722.69
2019-03-10T01:42:53.790Z,96713.78
2019-03-10T01:44:29.908Z,96716.25
2019-03-10T01:46:07.886Z,96713.19
2019-03-10T01:47:43.970Z,96709.35
2019-03-10T01:49:22.125Z,96709.17
2019-03-10T01:51:02.241Z,96701.80
2019-03-10T01:52:36.659Z,96688.00
2019-03-10T01:54:16.894Z,96684.58
2019-03-10T01:55:54.917Z,96675.08
2019-03-10T01:57:32.570Z,96679.13
2019-03-10T01:59:08.540Z,96661.28
2019-03-10T02:00:44.331Z,96641.17
2019-03-10T02:02:25.551Z,96637.37
2019-03-10T02:03:57.200Z,96621.77
2019-03-10T02:05:32.785Z,96614.13
2019-03-10T02:07:08.619Z,96603.46
2019-03-10T02:08:44.549Z,96604.14
2019-03-10T02:10:20.297Z,96607.44
2019-03-10T02:11:55.950Z,96602.02
2019-03-10T02:13:31.962Z,96596.42
2019-03-10T02:15:08.408Z,96592.70
2019-03-10T02:16:44.460Z,96596.50
2019-03-10T02:18:20.014Z,96588.05
2019-03-10T02:19:56.179Z,96588.52
2019-03-10T02:21:35.294Z,96583.69
2019-03-10T02:23:10.579Z,96586.81
2019-03-10T02:24:46.416Z,96589.34
2019-03-10T02:26:22.298Z,96587.98
2019-03-10T02:27:57.599Z,96581.39
2019-03-10T02:29:33.064Z,96578.67
2019-03-10T02:31:13.437Z,96571.48
2019-03-10T02:32:53.014Z,96562.81
2019-03-10T02:34:30.629Z,96563.82
2019-03-10T02:36:06.388Z,96567.27
2019-03-10T02:37:42.197Z,96569.87
2019-03-10T02:39:23.512Z,96566.27
2019-03-10T02:40:58.971Z,96562.55
2019-03-10T02:42:34.483Z,96558.66
2019-03-10T02:44:09.860Z,96557.43
2019-03-10T02:45:45.207Z,96556.66
2019-03-10T02:47:21.561Z,96557.08
2019-03-10T02:48:57.256Z,96555.05
2019-03-10T02:50:32.730Z,96554.78
2019-03-10T02:52:08.260Z,96549.80
2019-03-10T02:53:43.646Z,96538.19
2019-03-10T02:55:22.562Z,96544.44
2019-03-10T02:56:58.106Z,96548.50
2019-03-10T02:58:33.703Z,96528.61
2019-03-10T03:00:11.070Z,96520.48
2019-03-10T03:01:47.245Z,96523.02
2019-03-10T03:03:23.097Z,96518.53
2019-03-10T03:04:58.972Z,96513.11
2019-03-10T03:06:35.105Z,96511.16
2019-03-10T03:08:11.193Z,96505.56
2019-03-10T03:09:48.056Z,96498.70
2019-03-10T03:11:23.386Z,96502.72
2019-03-10T03:12:59.667Z,96502.06
2019-03-10T03:14:34.935Z,96499.00
2019-03-10T03:16:12.795Z,96499.18
2019-03-10T03:17:48.886Z,96492.14
2019-03-10T03:19:24.202Z,96486.87
2019-03-10T03:20:59.447Z,96481.89
2019-03-10T03:22:35.683Z,96470.45
2019-03-10T03:24:11.091Z,96471.95
2019-03-10T03:25:46.777Z,96468.83
2019-03-10T03:27:22.095Z,96466.63
2019-03-10T03:28:57.342Z,96469.59
2019-03-10T03:30:33.106Z,96463.94
2019-03-10T03:32:08.422Z,96460.11
2019-03-10T03:33:44.444Z,96452.33
2019-03-10T03:35:54.453Z,96448.59
2019-03-10T03:37:30.660Z,96454.34
2019-03-10T03:39:20.152Z,96447.30
2019-03-10T03:40:58.968Z,96440.92
2019-03-10T03:42:34.804Z,96439.57
2019-03-10T03:44:10.858Z,96433.05
2019-03-10T03:45:46.177Z,96431.34
2019-03-10T03:47:21.843Z,96435.17
2019-03-10T03:48:57.513Z,96419.50
2019-03-10T03:50:32.938Z,96426.20
2019-03-10T03:52:08.711Z,96424.08
2019-03-10T03:53:44.045Z,96417.30
2019-03-10T03:55:19.773Z,96424.25
2019-03-10T03:56:55.180Z,96418.15
2019-03-10T03:58:30.552Z,96415.09
2019-03-10T04:00:07.805Z,96411.61
2019-03-10T04:01:50.413Z,96401.63
2019-03-10T04:03:25.776Z,96390.88
2019-03-10T04:05:01.025Z,96392.56
2019-03-10T04:06:36.327Z,96390.80
2019-03-10T04:08:11.816Z,96380.37
2019-03-10T04:09:47.622Z,96371.41
2019-03-10T04:11:22.964Z,96360.88
2019-03-10T04:12:58.665Z,96359.00
2019-03-10T04:14:34.052Z,96358.57
2019-03-10T04:16:09.847Z,96354.09
2019-03-10T04:17:48.546Z,96347.98
2019-03-10T04:19:27.512Z,96344.95
2019-03-10T04:21:02.874Z,96343.43
2019-03-10T04:22:43.061Z,96340.72
2019-03-10T04:24:18.221Z,96337.91
2019-03-10T04:25:53.989Z,96324.25
2019-03-10T04:27:29.530Z,96316.71
2019-03-10T04:29:05.093Z,96312.83
2019-03-10T04:30:40.578Z,96304.03
2019-03-10T04:32:15.786Z,96300.88
2019-03-10T04:33:51.868Z,96298.67
2019-03-10T04:35:27.601Z,96304.09
2019-03-10T04:37:03.194Z,96298.02
2019-03-10T04:38:38.482Z,96295.96
2019-03-10T04:40:14.074Z,96295.09
2019-03-10T04:41:49.348Z,96294.39
2019-03-10T04:43:25.130Z,96284.66
2019-03-10T04:45:02.160Z,96279.72
2019-03-10T04:46:37.674Z,96280.90
2019-03-10T04:48:13.360Z,96279.78
2019-03-10T04:49:48.618Z,96273.72
2019-03-10T04:51:26.829Z,96274.05
2019-03-10T04:53:02.304Z,96272.34
2019-03-10T04:54:56.574Z,96271.93
2019-03-10T04:56:53.595Z,96259.94
2019-03-10T04:58:28.898Z,96265.48
2019-03-10T05:00:05.975Z,96255.58
2019-03-10T05:01:42.608Z,96255.30
2019-03-10T05:03:18.443Z,96253.94
2019-03-10T05:04:54.614Z,96249.97
2019-03-10T05:06:30.462Z,96238.09
2019-03-10T05:08:06.096Z,96236.48
2019-03-10T05:09:42.038Z,96230.78
2019-03-10T05:11:17.823Z,96228.19
2019-03-10T05:12:53.705Z,96224.78
2019-03-10T05:14:29.202Z,96220.14
2019-03-10T05:16:05.027Z,96220.97
2019-03-10T05:17:41.256Z,96214.85
2019-03-10T05:19:17.654Z,96214.14
2019-03-10T05:20:57.831Z,96209.48
2019-03-10T05:22:33.082Z,96202.19
2019-03-10T05:24:18.370Z,96199.02
2019-03-10T05:25:53.729Z,96192.34
2019-03-10T05:27:29.076Z,96182.11
2019-03-10T05:29:04.838Z,96181.94
2019-03-10T05:30:40.325Z,96171.53
2019-03-10T05:32:15.979Z,96169.30
2019-03-10T05:33:51.320Z,96155.61
2019-03-10T05:35:28.907Z,96153.48
2019-03-10T05:37:05.383Z,96144.20
2019-03-10T05:38:40.734Z,96149.02
2019-03-10T05:40:16.564Z,96141.67
2019-03-10T05:41:52.142Z,96136.84
2019-03-10T05:43:27.541Z,96140.06
2019-03-10T05:45:04.484Z,96125.19
2019-03-10T05:46:39.803Z,96118.25
2019-03-10T05:48:15.624Z,96124.08
2019-03-10T05:49:50.945Z,96105.91
2019-03-10T05:51:26.833Z,96103.20
2019-03-10T05:53:02.196Z,96092.14
2019-03-10T05:54:37.700Z,96087.99
2019-03-10T05:56:13.527Z,96092.81
2019-03-10T05:57:49.165Z,96089.17
2019-03-10T05:59:24.411Z,96084.45
2019-03-10T06:00:59.683Z,96082.75
2019-03-10T06:02:34.989Z,96073.63
2019-03-10T06:04:10.712Z,96066.19
2019-03-10T06:05:45.940Z,96058.94
2019-03-10T06:07:21.321Z,96060.43
2019-03-10T06:08:56.878Z,96047.94
2019-03-10T06:10:32.915Z,96033.79
2019-03-10T06:12:08.473Z,96028.02
2019-03-10T06:13:52.937Z,96009.83
2019-03-10T06:15:28.592Z,96012.09
2019-03-10T06:17:07.826Z,96001.88
2019-03-10T06:18:42.864Z,95992.23
2019-03-10T06:20:18.804Z,95994.65
2019-03-10T06:21:56.692Z,95985.13
2019-03-10T06:23:32.412Z,95983.86
2019-03-10T06:25:10.905Z,95977.37
2019-03-10T06:26:52.551Z,95972.03
2019-03-10T06:28:28.756Z,95977.39
2019-03-10T06:30:05.774Z,95966.50
2019-03-10T06:31:43.307Z,95960.52
2019-03-10T06:33:21.733Z,95954.70
2019-03-10T06:34:57.419Z,95951.41
2019-03-10T06:36:32.727Z,95943.30
2019-03-10T06:38:08.167Z,95940.02
2019-03-10T06:39:43.424Z,95937.48
2019-03-10T06:41:18.684Z,95935.52
2019-03-10T06:42:55.970Z,95927.69
2019-03-10T06:44:31.391Z,95927.27
2019-03-10T06:46:06.687Z,95918.54
2019-03-10T06:47:42.165Z,95918.36
2019-03-10T06:49:17.927Z,95921.23
2019-03-10T06:50:55.024Z,95909.19
2019-03-10T06:52:34.424Z,95908.19
2019-03-10T06:54:07.995Z,95896.52
2019-03-10T06:55:43.310Z,95884.47
2019-03-10T06:57:19.187Z,95880.41
2019-03-10T06:58:55.265Z,95869.20
2019-03-10T07:00:30.848Z,95870.96
2019-03-10T07:02:06.554Z,95865.91
2019-03-10T07:03:42.087Z,95859.56
2019-03-10T07:05:18.132Z,95854.76
2019-03-10T07:06:53.675Z,95851.81
2019-03-10T07:08:32.500Z,95843.63
2019-03-10T07:10:08.900Z,95834.48
2019-03-10T07:11:44.350Z,95833.14
2019-03-10T07:13:20.486Z,95823.37
2019-03-10T07:14:57.641Z,95820.98
2019-03-10T07:16:33.302Z,95811.04
2019-03-10T07:18:11.564Z,95810.45
2019-03-10T07:19:52.660Z,95802.34
2019-03-10T07:21:28.991Z,95790.36
2019-03-10T07:23:06.888Z,95795.59
2019-03-10T07:24:45.091Z,95796.49
2019-03-10T07:26:25.806Z,95794.89
2019-03-10T07:28:18.777Z,95792.12
2019-03-10T07:30:06.677Z,95793.98
2019-03-10T07:31:56.933Z,95789.34
2019-03-10T07:34:07.732Z,95788.91
2019-03-10T07:36:01.180Z,95785.69
2019-03-10T07:37:55.199Z,95767.88
2019-03-10T07:40:07.841Z,95766.44
2019-03-10T07:42:11.710Z,95772.02
2019-03-10T07:44:06.925Z,95774.27
2019-03-10T07:46:22.235Z,95781.03
2019-03-10T07:48:17.379Z,95771.48
2019-03-10T07:50:10.329Z,95773.73
2019-03-10T07:51:58.409Z,95760.98
2019-03-10T07:53:59.848Z,95760.90
2019-03-10T07:55:54.778Z,95755.41
2019-03-10T07:57:58.237Z,95762.84
2019-03-10T07:59:47.245Z,95751.91
2019-03-10T08:01:49.753Z,95751.57
2019-03-10T08:03:56.739Z,95744.27
2019-03-10T08:05:57.406Z,95737.92
2019-03-10T08:07:59.714Z,95733.66
2019-03-10T08:10:00.575Z,95732.12
2019-03-10T08:12:03.154Z,95733.05
2019-03-10T08:14:07.802Z,95724.63
2019-03-10T08:18:50.292Z,95738.44
2019-03-10T08:20:46.403Z,95727.72
2019-03-10T08:22:39.186Z,95718.15
2019-03-10T08:24:40.221Z,95716.64
2019-03-10T08:26:42.240Z,95723.51
2019-03-10T08:28:35.099Z,95721.20
2019-03-10T08:30:40.831Z,95720.53
2019-03-10T08:32:41.977Z,95734.77
2019-03-10T08:34:38.930Z,95732.45
2019-03-10T08:36:51.939Z,95743.80
2019-03-10T08:39:10.112Z,95747.69
2019-03-10T08:41:02.792Z,95740.87
2019-03-10T08:42:49.510Z,95751.73
2019-03-10T08:44:57.162Z,95750.21
2019-03-10T08:47:09.365Z,95759.83
2019-03-10T08:48:55.247Z,95756.15
2019-03-10T08:50:53.287Z,95754.42
2019-03-10T08:52:52.986Z,95762.05
2019-03-10T08:54:52.230Z,95756.36
2019-03-10T08:56:41.787Z,95758.52
2019-03-10T08:58:33.136Z,95733.55
2019-03-10T09:00:44.117Z,95730.63
2019-03-10T09:02:44.551Z,95741.72
2019-03-10T09:04:59.064Z,95749.30
2019-03-10T09:07:06.108Z,95755.69
2019-03-10T09:09:02.916Z,95771.59
2019-03-10T09:10:46.142Z,95774.97
2019-03-10T09:12:33.906Z,95779.98
2019-03-10T09:14:34.096Z,95784.53
2019-03-10T09:16:26.943Z,95795.59
2019-03-10T09:18:16.087Z,95802.70
2019-03-10T09:20:28.356Z,95801.84
2019-03-10T09:22:16.823Z,95800.66
2019-03-10T09:24:24.842Z,95815.54
2019-03-10T09:26:37.950Z,95825.09
2019-03-10T09:28:35.581Z,95824.48
2019-03-10T09:30:43.704Z,95828.44
2019-03-10T09:32:46.821Z,95826.19
2019-03-10T09:34:40.941Z,95833.45
2019-03-10T09:36:30.475Z,95842.07
2019-03-10T09:38:15.222Z,95839.06
2019-03-10T09:40:12.856Z,95843.28
2019-03-10T09:42:17.415Z,95849.05
2019-03-10T09:44:14.930Z,95846.30
2019-03-10T09:46:16.589Z,95825.70
2019-03-10T09:48:27.792Z,95835.09
2019-03-10T09:50:16.830Z,95823.30
2019-03-10T09:52:19.331Z,95836.91
2019-03-10T09:54:34.649Z,95826.63
2019-03-10T09:56:23.414Z,95816.93
2019-03-10T09:58:34.894Z,95804.67
2019-03-10T10:00:34.376Z,95800.28
2019-03-10T10:02:32.664Z,95789.53
2019-03-10T10:04:28.740Z,95770.91
2019-03-10T10:06:24.548Z,95790.13
2019-03-10T10:08:31.632Z,95786.37
2019-03-10T10:10:53.214Z,95783.50
2019-03-10T10:13:01.830Z,95781.53
2019-03-10T10:15:06.967Z,95763.82
2019-03-10T10:17:15.121Z,95760.95
2019-03-10T10:19:11.187Z,95753.08
2019-03-10T10:21:08.713Z,95762.01
2019-03-10T10:23:02.421Z,95735.34
2019-03-10T10:24:55.763Z,95735.34
2019-03-10T10:26:46.495Z,95728.98
2019-03-10T10:28:30.379Z,95728.52
2019-03-10T10:30:26.388Z,95739.13
2019-03-10T10:32:17.846Z,95765.34
2019-03-10T10:34:10.489Z,95716.75
2019-03-10T10:36:08.719Z,95754.02
2019-03-10T10:38:04.180Z,95738.97
2019-03-10T10:40:07.995Z,95728.64
2019-03-10T10:42:04.464Z,95702.44
2019-03-10T10:44:03.469Z,95722.95
2019-03-10T10:46:12.505Z,95691.30
2019-03-10T10:48:05.343Z,95688.02
2019-03-10T10:50:02.961Z,95669.81
2019-03-10T10:52:01.851Z,95635.93
2019-03-10T10:54:09.523Z,95646.70
2019-03-10T10:56:14.636Z,95635.00
2019-03-10T10:58:02.322Z,95600.48
2019-03-10T11:00:08.750Z,95584.18
2019-03-10T11:02:07.228Z,95552.89
2019-03-10T11:04:23.247Z,95547.45
2019-03-10T11:06:15.857Z,95524.33
2019-03-10T11:08:13.186Z,95529.95
2019-03-10T11:10:10.596Z,95529.49
2019-03-10T11:12:13.725Z,95516.47
2019-03-10T11:14:10.314Z,95513.73
2019-03-10T11:16:20.545Z,95515.19
2019-03-10T11:18:23.822Z,95517.70
2019-03-10T11:20:18.789Z,95528.48
2019-03-10T11:22:05.341Z,95546.77
2019-03-10T11:23:55.440Z,95551.47
2019-03-10T11:25:58.828Z,95554.84
2019-03-10T11:27:41.997Z,95535.67
2019-03-10T11:29:36.721Z,95498.43
2019-03-10T11:31:51.410Z,95524.59
2019-03-10T11:34:03.309Z,95502.77
2019-03-10T11:35:58.878Z,95492.62
2019-03-10T11:38:01.325Z,95508.95
2019-03-10T11:40:01.517Z,95483.91
2019-03-10T11:42:13.389Z,95467.85
2019-03-10T11:44:28.480Z,95452.56
2019-03-10T11:46:51.984Z,95443.39
2019-03-10T11:48:52.820Z,95451.56
2019-03-10T11:50:49.667Z,95430.70
2019-03-10T11:52:49.678Z,95439.53
2019-03-10T11:54:48.201Z,95426.97
2019-03-10T11:57:00.356Z,95428.05
2019-03-10T11:58:50.403Z,95430.02
2019-03-10T12:00:37.448Z,95450.57
2019-03-10T12:02:25.187Z,95446.39
2019-03-10T12:04:22.502Z,95439.36
2019-03-10T12:06:16.312Z,95444.25
2019-03-10T12:08:10.499Z,95446.08
2019-03-10T12:09:48.271Z,95448.85
2019-03-10T12:11:32.250Z,95455.39
2019-03-10T12:13:07.269Z,95465.88
2019-03-10T12:14:45.887Z,95487.39
2019-03-10T12:16:25.880Z,95495.61
2019-03-10T12:18:01.885Z,95499.09
2019-03-10T12:19:40.042Z,95512.00
2019-03-10T12:21:16.070Z,95530.00
2019-03-10T12:22:52.438Z,95542.25
2019-03-10T12:24:34.256Z,95500.16
2019-03-10T12:26:13.182Z,95535.95
2019-03-10T12:27:52.263Z,95523.63
2019-03-10T12:29:28.529Z,95542.84
2019-03-10T12:31:15.409Z,95458.86
2019-03-10T12:32:55.700Z,95543.16
2019-03-10T12:34:53.147Z,95507.33
2019-03-10T12:36:35.831Z,95539.75
2019-03-10T12:38:18.747Z,95495.77
2019-03-10T12:40:00.944Z,95517.41
2019-03-10T12:41:41.715Z,95542.96
2019-03-10T12:43:29.566Z,95534.80
2019-03-10T12:45:06.784Z,95476.26
2019-03-10T12:46:47.443Z,95480.03
2019-03-10T12:48:23.336Z,95522.39
2019-03-10T12:50:04.877Z,95537.66
2019-03-10T12:51:40.307Z,95530.11
2019-03-10T12:53:17.555Z,95549.06
2019-03-10T12:54:54.274Z,95556.17
2019-03-10T12:56:36.335Z,95520.94
2019-03-10T12:58:35.787Z,95530.31
2019-03-10T13:00:23.612Z,95529.89
2019-03-10T13:02:10.263Z,95547.30
2019-03-10T13:03:46.153Z,95534.89
2019-03-10T13:05:21.682Z,95549.44
2019-03-10T13:07:04.661Z,95536.30
2019-03-10T13:08:43.933Z,95541.77
2019-03-10T13:10:22.392Z,95533.45
2019-03-10T13:12:00.293Z,95533.17
2019-03-10T13:13:40.972Z,95515.64
2019-03-10T13:15:36.841Z,95553.73
2019-03-10T13:17:20.235Z,95520.03
2019-03-10T13:19:05.711Z,95552.06
2019-03-10T13:20:45.861Z,95550.70
2019-03-10T13:22:22.424Z,95555.11
2019-03-10T13:24:02.264Z,95548.61
2019-03-10T13:25:53.324Z,95580.50
2019-03-10T13:27:29.112Z,95532.30
2019-03-10T13:29:05.280Z,95567.05
2019-03-10T13:30:42.821Z,95589.11
2019-03-10T13:32:20.457Z,95566.73
2019-03-10T13:34:02.544Z,95555.70
2019-03-10T13:35:40.857Z,95565.83
2019-03-10T13:37:22.440Z,95587.00
2019-03-10T13:39:01.043Z,95575.03
2019-03-10T13:40:45.187Z,95590.61
2019-03-10T13:42:45.958Z,95592.88
2019-03-10T13:44:25.252Z,95584.99
2019-03-10T13:46:05.547Z,95584.22
2019-03-10T13:47:50.750Z,95586.78
2019-03-10T13:49:29.953Z,95585.91
2019-03-10T13:51:06.611Z,95569.55
2019-03-10T13:52:59.099Z,95575.91
2019-03-10T13:54:41.036Z,95565.31
2019-03-10T13:56:27.983Z,95566.80
2019-03-10T13:58:25.223Z,95567.22
2019-03-10T14:00:07.731Z,95549.47
2019-03-10T14:02:02.116Z,95537.62
2019-03-10T14:03:42.696Z,95525.51
2019-03-10T14:05:26.208Z,95524.59
2019-03-10T14:07:11.293Z,95531.84
2019-03-10T14:08:50.892Z,95516.60
2019-03-10T14:10:29.173Z,95501.84
2019-03-10T14:12:15.210Z,95501.95
2019-03-10T14:14:00.727Z,95470.62
2019-03-10T14:15:45.036Z,95486.00
2019-03-10T14:18:00.633Z,95479.38
2019-03-10T14:19:40.878Z,95467.83
2019-03-10T14:21:17.496Z,95451.89
2019-03-10T14:22:53.470Z,95473.81
2019-03-10T14:24:33.405Z,95398.72
2019-03-10T14:26:26.320Z,95441.09
2019-03-10T14:27:59.287Z,95469.25
2019-03-10T14:29:44.350Z,95452.03
2019-03-10T14:31:23.143Z,95445.58
2019-03-10T14:33:00.420Z,95436.73
2019-03-10T14:34:41.798Z,95422.88
2019-03-10T14:36:20.047Z,95407.01
2019-03-10T14:38:00.973Z,95431.80
2019-03-10T14:39:42.150Z,95425.45
2019-03-10T14:41:18.120Z,95445.47
2019-03-10T14:42:53.957Z,95434.86
2019-03-10T14:44:35.127Z,95437.29
2019-03-10T14:46:11.093Z,95462.42
2019-03-10T14:47:50.363Z,95472.14
2019-03-10T14:49:27.754Z,95456.56
2019-03-10T14:51:07.105Z,95485.16
2019-03-10T14:52:45.495Z,95468.13
2019-03-10T14:54:22.997Z,95471.93
2019-03-10T14:56:01.835Z,95468.60
2019-03-10T14:57:41.931Z,95472.09
2019-03-10T14:59:37.326Z,95496.67
2019-03-10T15:01:12.575Z,95473.41
2019-03-10T15:02:48.562Z,95501.41
2019-03-10T15:04:24.885Z,95457.16
2019-03-10T15:06:05.284Z,95513.08
2019-03-10T15:07:45.371Z,95522.02
2019-03-10T15:09:24.267Z,95529.27
2019-03-10T15:10:59.882Z,95573.23
2019-03-10T15:12:35.863Z,95525.81
2019-03-10T15:14:15.271Z,95570.39
2019-03-10T15:16:01.735Z,95561.33
2019-03-10T15:17:43.229Z,95515.09
2019-03-10T15:19:22.713Z,95557.69
2019-03-10T15:20:59.259Z,95555.56
2019-03-10T15:22:40.165Z,95571.88
2019-03-10T15:24:17.205Z,95583.03
2019-03-10T15:25:59.961Z,95580.18
2019-03-10T15:27:42.314Z,95610.05
2019-03-10T15:29:20.165Z,95592.69
2019-03-10T15:30:58.295Z,95606.10
2019-03-10T15:32:36.355Z,95627.38
2019-03-10T15:34:34.397Z,95624.34
2019-03-10T15:36:20.286Z,95639.42
2019-03-10T15:37:49.740Z,95579.95
2019-03-10T15:39:27.283Z,95632.10
2019-03-10T15:41:05.372Z,95665.89
2019-03-10T15:42:45.820Z,95670.09
2019-03-10T15:44:22.194Z,95682.88
2019-03-10T15:46:20.393Z,95636.97
2019-03-10T15:47:58.837Z,95657.48
2019-03-10T15:49:36.457Z,95696.37
2019-03-10T15:51:22.695Z,95694.69
2019-03-10T15:53:06.098Z,95672.37
2019-03-10T15:54:47.678Z,95698.45
2019-03-10T15:56:26.879Z,95683.36
2019-03-10T15:58:05.190Z,95697.05
2019-03-10T15:59:44.079Z,95698.88
2019-03-10T16:01:21.874Z,95693.77
2019-03-10T16:03:02.462Z,95706.70
2019-03-10T16:04:42.108Z,95703.88
2019-03-10T16:06:21.047Z,95700.40
2019-03-10T16:08:00.663Z,95708.66
2019-03-10T16:09:57.509Z,95732.33
2019-03-10T16:11:36.464Z,95729.33
2019-03-10T16:13:17.882Z,95742.84
2019-03-10T16:15:09.265Z,95729.67
2019-03-10T16:16:45.355Z,95766.45
2019-03-10T16:18:21.241Z,95744.70
2019-03-10T16:19:57.301Z,95753.88
2019-03-10T16:21:33.751Z,95772.08
2019-03-10T16:23:15.403Z,95758.63
2019-03-10T16:24:52.587Z,95777.73
2019-03-10T16:26:40.141Z,95778.63
2019-03-10T16:28:55.685Z,95765.62
2019-03-10T16:30:40.157Z,95827.34
2019-03-10T16:32:55.369Z,95811.91
2019-03-10T16:34:40.560Z,95819.28
2019-03-10T16:36:47.957Z,95781.59
2019-03-10T16:38:23.575Z,95829.64
2019-03-10T16:40:12.027Z,95863.04
2019-03-10T16:41:50.573Z,95865.29
2019-03-10T16:43:33.622Z,95855.57
2019-03-10T16:45:22.904Z,95875.53
2019-03-10T16:47:07.610Z,95898.27
2019-03-10T16:48:55.532Z,95898.92
2019-03-10T16:50:34.392Z,95922.34
2019-03-10T16:52:22.023Z,95944.37
2019-03-10T16:54:01.517Z,95883.91
2019-03-10T16:55:43.384Z,95948.61
2019-03-10T16:57:24.977Z,95958.46
2019-03-10T16:59:04.044Z,95956.45
2019-03-10T17:00:42.694Z,95987.95
2019-03-10T17:02:19.418Z,96038.20
2019-03-10T17:04:04.881Z,96049.41
2019-03-10T17:05:46.146Z,96054.30
2019-03-10T17:07:25.384Z,96065.36
2019-03-10T17:09:34.063Z,96090.27
2019-03-10T17:11:19.324Z,96089.41
2019-03-10T17:12:59.993Z,96097.25
2019-03-10T17:14:45.295Z,96099.78
2019-03-10T17:16:26.352Z,96107.48
2019-03-10T17:18:08.253Z,96129.11
2019-03-10T17:20:35.792Z,96156.56
2019-03-10T17:22:23.192Z,96140.05
2019-03-10T17:24:23.620Z,96154.30
2019-03-10T17:26:08.590Z,96168.05
2019-03-10T17:27:52.577Z,96173.33
2019-03-10T17:29:47.105Z,96189.45
2019-03-10T17:31:39.262Z,96197.91
2019-03-10T17:33:26.023Z,96224.70
2019-03-10T17:35:06.868Z,96222.89
2019-03-10T17:37:27.260Z,96254.77
2019-03-10T17:41:00.490Z,96260.25
2019-03-10T17:43:08.514Z,96266.13
2019-03-10T17:45:06.005Z,96275.58
2019-03-10T17:47:09.732Z,96274.59
2019-03-10T17:48:50.092Z,96300.65
2019-03-10T17:54:41.805Z,96318.56
2019-03-10T17:56:33.433Z,96323.02
2019-03-10T17:58:34.071Z,96328.82
2019-03-10T18:00:37.265Z,96343.85
2019-03-10T18:02:20.614Z,96342.69
2019-03-10T18:04:23.305Z,96362.17
2019-03-10T18:06:22.517Z,96368.73
2019-03-10T18:11:23.827Z,96376.62
2019-03-10T18:13:15.164Z,96377.61
2019-03-10T18:15:37.028Z,96391.47
2019-03-10T18:17:17.768Z,96374.33
2019-03-10T18:19:17.456Z,96397.89
2019-03-10T18:21:09.079Z,96408.11
2019-03-10T18:24:53.434Z,96410.59
2019-03-10T18:26:32.125Z,96410.78
2019-03-10T18:28:19.674Z,96410.41
2019-03-10T18:30:02.963Z,96409.83
2019-03-10T18:31:44.928Z,96421.03
2019-03-10T18:33:31.675Z,96424.86
2019-03-10T18:35:14.388Z,96439.72
2019-03-10T18:37:15.983Z,96435.30
2019-03-10T18:38:56.812Z,96440.48
2019-03-10T18:40:32.341Z,96455.09
2019-03-10T18:42:16.037Z,96450.88
2019-03-10T18:43:57.603Z,96461.62
2019-03-10T18:45:34.901Z,96464.11
2019-03-10T18:47:17.186Z,96445.42
2019-03-10T18:48:57.242Z,96445.35
2019-03-10T18:50:39.057Z,96443.17
2019-03-10T18:52:19.904Z,96448.75
2019-03-10T18:54:02.128Z,96453.75
2019-03-10T18:55:34.448Z,96437.03
2019-03-10T18:57:20.406Z,96443.42
2019-03-10T18:59:07.276Z,96441.48
2019-03-10T19:00:46.569Z,96450.54
2019-03-10T19:02:28.327Z,96444.98
2019-03-10T19:04:13.340Z,96451.92
2019-03-10T19:05:49.000Z,96453.05
2019-03-10T19:07:26.776Z,96463.86
2019-03-10T19:09:16.594Z,96454.63
2019-03-10T19:11:02.020Z,96472.95
2019-03-10T19:12:40.526Z,96464.48
2019-03-10T19:14:24.779Z,96470.83
2019-03-10T19:16:07.336Z,96472.00
2019-03-10T19:17:47.778Z,96462.33
2019-03-10T19:19:34.521Z,96476.23
2019-03-10T19:21:14.155Z,96480.28
2019-03-10T19:22:56.945Z,96482.77
2019-03-10T19:24:49.787Z,96490.80
2019-03-10T19:26:33.829Z,96447.98
2019-03-10T19:28:23.431Z,96453.54
2019-03-10T19:30:28.747Z,96444.30
2019-03-10T19:32:12.573Z,96458.94
2019-03-10T19:33:53.534Z,96458.27
2019-03-10T19:35:38.026Z,96450.88
2019-03-10T19:37:17.745Z,96436.27
2019-03-10T19:38:53.618Z,96450.94
2019-03-10T19:40:31.983Z,96467.58
2019-03-10T19:42:17.859Z,96449.98
2019-03-10T19:44:04.926Z,96467.58
2019-03-10T19:45:57.787Z,96456.98
2019-03-10T19:47:39.654Z,96460.27
2019-03-10T19:49:25.000Z,96477.43
2019-03-10T19:51:03.062Z,96482.06
2019-03-10T19:53:01.917Z,96478.78
2019-03-10T19:54:39.757Z,96475.89
2019-03-10T19:56:19.523Z,96485.99
2019-03-10T19:58:06.103Z,96500.47
2019-03-10T19:59:53.352Z,96499.12
2019-03-10T20:01:36.968Z,96497.99
2019-03-10T20:03:25.276Z,96508.61
2019-03-10T20:05:06.579Z,96522.32
2019-03-10T20:06:43.521Z,96512.69
2019-03-10T20:08:21.897Z,96505.56
2019-03-10T20:10:11.017Z,96484.39
2019-03-10T20:11:49.828Z,96504.64
2019-03-10T20:13:26.927Z,96506.20
2019-03-10T20:15:07.153Z,96512.77
2019-03-10T20:17:07.078Z,96522.62
2019-03-10T20:18:49.952Z,96507.98
2019-03-10T20:20:32.411Z,96532.28
2019-03-10T20:22:12.922Z,96524.95
2019-03-10T20:24:05.484Z,96531.30
2019-03-10T20:25:37.304Z,96514.70
2019-03-10T20:27:16.350Z,96524.95
2019-03-10T20:29:00.222Z,96530.55
2019-03-10T20:30:41.991Z,96534.42
2019-03-10T20:32:28.688Z,96543.73
2019-03-10T20:34:05.547Z,96567.84
2019-03-10T20:35:50.650Z,96549.95
2019-03-10T20:37:27.366Z,96573.36
2019-03-10T20:39:17.990Z,96586.35
2019-03-10T20:41:06.414Z,96580.05
2019-03-10T20:42:54.644Z,96589.84